Hlavní strana
METAR-TAF:

METAR-TAF

Letiště :

Hasvik, Norsko

zeměpisná šířka: 70-29N, zeměpisná délka: 022-09E, výška: 10 m

Aktuální stav počasí

Zpráva byla vytvořena před 6 hodinami a 29 minutami, v 21:20 UTC
vítr z různých směrů 2 kt
Teplota -4°C
Vlhkost vzduchu 80%
Tlak 993 hPa
Viditelnost 10 km a více
Skoro jasno ve výšce 2500 ft

METAR: ENHK 152120Z VRB02KT 9999 FEW025 M04/M07 Q0993

Čas: 04:49 (03:49 UTC)


TAF: chybějící

Stav a předpovědi počasí z více než 4 000 letišť (zprávy METAR a TAF).

Červené a žluté tečky na mapě představují dostupné meteorologické stanice.

Když kurzor umístíte na tečku, zobrazí se název stanice.

Pak kliknutím zobrazíte stav a předpověď počasí.

Chcete-li změnit mapu, kliknutím na zelené tlačítko se znaménkem +mapu přiblížíte, kliknutím na zelené tlačítko se znaménkem – mapu oddálíte a kliknutím na zelené šipky přejdete na sousední mapy.


METAR-TAF: